Time;durP1;ratioP1;P1;durP2;ratioP2;P2;SDS_P1;SDS_P2;PMS_P1;PMS_P2;Temp;Humidity;BMP_temperature;BMP_pressure;BME280_temperature;BME280_humidity;BME280_pressure;Samples;Min_cycle;Max_cycle;Signal;HPM_P1;HPM_P2
2022/01/02 00:01:08;;;;;;;18.55;11.40;;;6.20;99.90;;;;;;5009027;28;20551;-63
2022/01/02 00:03:58;;;;;;;20.33;12.25;;;6.20;99.90;;;;;;4999380;28;20311;-63
2022/01/02 00:06:51;;;;;;;21.05;11.80;;;6.20;99.90;;;;;;5009321;28;20408;-62
2022/01/02 00:09:38;;;;;;;19.08;11.50;;;6.20;99.90;;;;;;5023460;28;20056;-63
2022/01/02 00:12:27;;;;;;;18.15;11.18;;;6.20;99.90;;;;;;5017566;28;20159;-63
2022/01/02 00:15:18;;;;;;;20.48;11.57;;;6.30;99.90;;;;;;5018973;28;20061;-63
2022/01/02 00:18:11;;;;;;;20.00;11.05;;;6.30;99.90;;;;;;5028841;28;20407;-63
2022/01/02 00:21:00;;;;;;;19.67;11.20;;;6.30;99.90;;;;;;5013823;28;20064;-63
2022/01/02 00:23:59;;;;;;;20.00;11.57;;;6.30;99.90;;;;;;5028708;28;20416;-63
2022/01/02 00:26:48;;;;;;;20.17;10.65;;;6.30;99.90;;;;;;5027168;28;20048;-63
2022/01/02 00:29:39;;;;;;;18.00;10.40;;;6.40;99.90;;;;;;5028872;28;20179;-63
2022/01/02 00:32:27;;;;;;;16.88;10.30;;;6.40;99.90;;;;;;5033936;28;20056;-62
2022/01/02 00:35:13;;;;;;;18.40;10.45;;;6.40;99.90;;;;;;5028594;28;20052;-62
2022/01/02 00:37:59;;;;;;;15.48;9.98;;;6.40;99.90;;;;;;5029282;28;20618;-62
2022/01/02 00:40:46;;;;;;;16.02;10.00;;;6.40;99.90;;;;;;5028587;28;20048;-63
2022/01/02 00:43:46;;;;;;;15.48;9.45;;;6.40;99.90;;;;;;5028707;28;20068;-63
2022/01/02 00:46:39;;;;;;;16.27;9.40;;;6.30;99.90;;;;;;5013863;28;20060;-63
2022/01/02 00:49:26;;;;;;;16.83;10.02;;;6.30;99.90;;;;;;5023953;28;20534;-63
2022/01/02 00:52:21;;;;;;;17.08;9.70;;;6.30;99.90;;;;;;5026612;28;20061;-63
2022/01/02 00:55:10;;;;;;;17.20;10.02;;;6.20;99.90;;;;;;5028312;28;20455;-63
2022/01/02 00:58:01;;;;;;;15.77;9.40;;;6.20;99.90;;;;;;5009092;28;20495;-63
2022/01/02 01:00:50;;;;;;;18.57;10.57;;;6.20;99.90;;;;;;5008824;28;20053;-63
2022/01/02 01:03:40;;;;;;;16.40;9.43;;;6.20;99.90;;;;;;5008626;28;20172;-63
2022/01/02 01:06:32;;;;;;;15.98;9.88;;;6.10;99.90;;;;;;4998764;28;20073;-63
2022/01/02 01:09:20;;;;;;;15.95;10.13;;;6.10;99.90;;;;;;5014051;28;20511;-63
2022/01/02 01:12:06;;;;;;;17.80;10.05;;;6.20;99.90;;;;;;5014868;28;20148;-64
2022/01/02 01:14:52;;;;;;;17.08;10.50;;;6.10;99.90;;;;;;5029707;28;20060;-63
2022/01/02 01:17:39;;;;;;;16.70;9.75;;;6.20;99.90;;;;;;5035869;28;20528;-63
2022/01/02 01:20:32;;;;;;;19.25;9.93;;;6.20;99.90;;;;;;5021901;28;20060;-64
2022/01/02 01:23:17;;;;;;;17.67;10.93;;;6.20;99.90;;;;;;5030508;28;20053;-64
2022/01/02 01:26:07;;;;;;;19.05;10.50;;;6.20;99.90;;;;;;5044875;28;20068;-64
2022/01/02 01:28:53;;;;;;;17.08;9.65;;;6.20;99.90;;;;;;5020537;28;20463;-64
2022/01/02 01:31:38;;;;;;;15.25;9.40;;;6.20;99.90;;;;;;5018322;28;20096;-64
2022/01/02 01:34:25;;;;;;;18.02;10.27;;;6.20;99.90;;;;;;5016884;28;20087;-63
2022/01/02 01:37:10;;;;;;;16.45;9.93;;;6.20;99.90;;;;;;5017169;28;20171;-63
2022/01/02 01:39:58;;;;;;;17.55;10.05;;;6.20;99.90;;;;;;5030226;28;20510;-63
2022/01/02 01:42:56;;;;;;;15.55;9.43;;;6.20;99.90;;;;;;5017193;28;20053;-63
2022/01/02 01:45:46;;;;;;;17.60;10.02;;;6.20;99.90;;;;;;5016824;28;20049;-63
2022/01/02 01:48:32;;;;;;;17.88;9.18;;;6.20;99.90;;;;;;5031689;28;20052;-63
2022/01/02 01:51:17;;;;;;;17.95;9.55;;;6.10;99.90;;;;;;5031721;28;20456;-63
2022/01/02 01:54:03;;;;;;;16.38;9.02;;;6.10;99.90;;;;;;5030309;28;20053;-63
2022/01/02 01:56:53;;;;;;;16.95;9.65;;;6.00;99.90;;;;;;5044704;28;20542;-63
2022/01/02 01:59:45;;;;;;;14.73;9.05;;;6.00;99.90;;;;;;5021702;28;20053;-63
2022/01/02 02:02:32;;;;;;;15.20;9.50;;;6.00;99.90;;;;;;5010029;28;20416;-63
2022/01/02 02:05:18;;;;;;;15.35;8.63;;;6.00;99.90;;;;;;5000973;28;20060;-63
2022/01/02 02:08:07;;;;;;;14.85;9.05;;;5.90;99.90;;;;;;5026938;28;20057;-63
2022/01/02 02:10:58;;;;;;;19.00;9.57;;;5.90;99.90;;;;;;5031983;28;20069;-63
2022/01/02 02:13:45;;;;;;;15.57;9.35;;;5.90;99.90;;;;;;5016191;28;20831;-63
2022/01/02 02:16:32;;;;;;;18.60;10.10;;;5.80;99.90;;;;;;5014465;28;20076;-64
2022/01/02 02:19:18;;;;;;;18.05;9.55;;;5.80;99.90;;;;;;5030623;28;20057;-63
2022/01/02 02:22:06;;;;;;;18.98;9.40;;;5.80;99.90;;;;;;5015013;28;20048;-63
2022/01/02 02:24:52;;;;;;;15.15;8.45;;;5.80;99.90;;;;;;5031170;28;20522;-63
2022/01/02 02:27:38;;;;;;;15.50;9.25;;;5.80;99.90;;;;;;5015741;28;20512;-63
2022/01/02 02:30:26;;;;;;;17.60;9.65;;;5.80;99.90;;;;;;5019826;28;20112;-63
2022/01/02 02:33:14;;;;;;;20.88;10.35;;;5.90;99.90;;;;;;5015445;28;20053;-63
2022/01/02 02:36:02;;;;;;;16.58;9.63;;;5.90;99.90;;;;;;5015799;28;20064;-63
2022/01/02 02:38:48;;;;;;;14.50;8.90;;;5.90;99.90;;;;;;5015612;28;20052;-63
2022/01/02 02:41:37;;;;;;;17.20;9.48;;;5.90;99.90;;;;;;5029526;28;20052;-63
2022/01/02 02:44:37;;;;;;;15.77;9.13;;;5.90;99.90;;;;;;5005728;28;20077;-63
2022/01/02 02:50:29;;;;;;;14.68;8.98;;;6.00;99.90;;;;;;5013390;28;20059;-63
2022/01/02 02:53:16;;;;;;;15.18;8.50;;;5.90;99.90;;;;;;5015213;28;20935;-63
2022/01/02 02:56:13;;;;;;;15.23;8.63;;;5.90;99.90;;;;;;5042924;28;20052;-64
2022/01/02 02:59:05;;;;;;;18.45;8.95;;;5.90;99.90;;;;;;5016354;28;20053;-63
2022/01/02 03:01:52;;;;;;;13.18;8.57;;;5.80;99.90;;;;;;5013560;28;20147;-63
2022/01/02 03:04:38;;;;;;;16.35;9.38;;;5.70;99.90;;;;;;5030515;28;20175;-63
2022/01/02 03:07:25;;;;;;;15.38;9.07;;;5.70;99.90;;;;;;5029255;28;20470;-63
2022/01/02 03:10:11;;;;;;;17.30;9.38;;;5.70;99.90;;;;;;5016601;28;20138;-63
2022/01/02 03:12:57;;;;;;;19.65;9.93;;;5.60;99.90;;;;;;5014462;28;20605;-63
2022/01/02 03:15:43;;;;;;;15.95;8.77;;;5.60;99.90;;;;;;5027921;28;20056;-63
2022/01/02 03:18:29;;;;;;;15.55;9.05;;;5.50;99.90;;;;;;5014971;28;20508;-63
2022/01/02 03:21:14;;;;;;;15.57;8.68;;;5.50;99.90;;;;;;5023685;28;20103;-63
2022/01/02 03:24:01;;;;;;;16.77;9.13;;;5.50;99.90;;;;;;5014998;28;20080;-63
2022/01/02 03:26:48;;;;;;;16.92;8.80;;;5.50;99.90;;;;;;5029095;28;20068;-63
2022/01/02 03:29:34;;;;;;;15.50;8.80;;;5.50;99.90;;;;;;5027034;28;20048;-63
2022/01/02 03:32:20;;;;;;;15.68;8.98;;;5.50;99.90;;;;;;5026593;28;20055;-63
2022/01/02 03:35:07;;;;;;;14.07;8.10;;;5.40;99.90;;;;;;5012315;28;20095;-65
2022/01/02 03:37:53;;;;;;;16.83;9.63;;;5.40;99.90;;;;;;5034650;28;20131;-63
2022/01/02 03:40:40;;;;;;;16.50;9.32;;;5.40;99.90;;;;;;5039588;28;20051;-63
2022/01/02 03:43:26;;;;;;;15.90;8.80;;;5.30;99.90;;;;;;5029028;28;20053;-63
2022/01/02 03:46:12;;;;;;;16.80;9.35;;;5.30;99.90;;;;;;5011969;28;20119;-63
2022/01/02 03:48:59;;;;;;;15.88;9.02;;;5.20;99.90;;;;;;5027755;28;20056;-63
2022/01/02 03:51:45;;;;;;;17.92;9.05;;;5.20;99.90;;;;;;5013055;28;20060;-63
2022/01/02 03:54:32;;;;;;;15.88;8.77;;;5.20;99.90;;;;;;5027153;28;20056;-63
2022/01/02 03:57:18;;;;;;;15.32;9.02;;;5.20;99.90;;;;;;5045987;28;20442;-63
2022/01/02 04:00:07;;;;;;;17.75;9.43;;;5.10;99.90;;;;;;5025761;28;20056;-62
2022/01/02 04:02:58;;;;;;;16.92;8.68;;;5.10;99.90;;;;;;5021835;28;20736;-63
2022/01/02 04:05:45;;;;;;;15.13;8.43;;;5.10;99.90;;;;;;5013246;28;20522;-63
2022/01/02 04:08:31;;;;;;;17.40;9.82;;;5.00;99.90;;;;;;5012715;28;20119;-63
2022/01/02 04:11:17;;;;;;;16.85;9.02;;;5.00;99.90;;;;;;5028335;28;20060;-63
2022/01/02 04:14:03;;;;;;;19.63;9.15;;;5.00;99.90;;;;;;5041048;28;20061;-62
2022/01/02 04:16:48;;;;;;;17.45;10.27;;;5.00;99.90;;;;;;5013660;28;20407;-62
2022/01/02 04:19:34;;;;;;;16.38;9.65;;;5.00;99.90;;;;;;5041671;28;20045;-62
2022/01/02 04:22:20;;;;;;;15.90;9.60;;;5.00;99.90;;;;;;5027579;28;20061;-63
2022/01/02 04:25:08;;;;;;;17.15;9.82;;;5.00;99.90;;;;;;5024348;28;20057;-63
2022/01/02 04:27:53;;;;;;;17.30;9.93;;;5.00;99.90;;;;;;5027265;28;20451;-64
2022/01/02 04:30:40;;;;;;;20.08;10.48;;;5.00;99.90;;;;;;5011442;28;20064;-64
2022/01/02 04:33:26;;;;;;;19.08;10.52;;;5.00;99.90;;;;;;5026818;28;20451;-64
2022/01/02 04:36:12;;;;;;;15.85;9.63;;;5.00;99.90;;;;;;5027137;28;20061;-64
2022/01/02 04:38:59;;;;;;;18.77;10.18;;;5.00;99.90;;;;;;5000055;28;20044;-63
2022/01/02 04:41:45;;;;;;;18.00;10.35;;;5.00;99.90;;;;;;5013921;28;20060;-63
2022/01/02 04:44:31;;;;;;;18.15;10.25;;;5.00;99.90;;;;;;5029207;28;20061;-64
2022/01/02 04:47:17;;;;;;;21.27;9.95;;;5.00;99.90;;;;;;5012317;28;20527;-64
2022/01/02 04:50:06;;;;;;;19.55;10.55;;;5.00;99.90;;;;;;5009282;28;20060;-63
2022/01/02 04:52:52;;;;;;;17.15;9.68;;;5.00;99.90;;;;;;5007066;28;20051;-63
2022/01/02 04:55:38;;;;;;;21.35;11.45;;;5.00;99.90;;;;;;5045391;28;20171;-63
2022/01/02 04:58:23;;;;;;;22.10;11.00;;;5.00;99.90;;;;;;5030979;28;20052;-63
2022/01/02 05:01:12;;;;;;;22.58;11.90;;;5.00;99.90;;;;;;5030554;28;20064;-63
2022/01/02 05:03:58;;;;;;;18.30;10.65;;;5.00;99.90;;;;;;5024339;28;20519;-64
2022/01/02 05:06:44;;;;;;;20.55;10.45;;;5.00;99.90;;;;;;5011288;28;20088;-63
2022/01/02 05:09:32;;;;;;;18.10;10.27;;;5.00;99.90;;;;;;5026943;28;20175;-63
2022/01/02 05:12:18;;;;;;;21.50;11.00;;;5.00;99.90;;;;;;5022130;28;20063;-64
2022/01/02 05:15:06;;;;;;;23.77;11.63;;;5.00;99.90;;;;;;5031509;28;20095;-64
2022/01/02 05:17:52;;;;;;;19.65;10.30;;;5.00;99.90;;;;;;5029769;28;20136;-64
2022/01/02 05:20:39;;;;;;;20.20;11.27;;;5.00;99.90;;;;;;5017322;28;20204;-64
2022/01/02 05:23:25;;;;;;;20.35;11.82;;;5.00;99.90;;;;;;5014420;28;20057;-62
2022/01/02 05:26:11;;;;;;;22.13;10.73;;;5.00;99.90;;;;;;5030432;28;20207;-63
2022/01/02 05:28:56;;;;;;;21.88;11.00;;;5.00;99.90;;;;;;5005064;28;20445;-62
2022/01/02 05:31:43;;;;;;;19.27;10.88;;;5.00;99.90;;;;;;5042984;28;20061;-62
2022/01/02 05:34:28;;;;;;;19.48;11.65;;;5.10;99.90;;;;;;5043244;28;20060;-63
2022/01/02 05:37:14;;;;;;;19.23;10.95;;;5.00;99.90;;;;;;5027847;28;20093;-63
2022/01/02 05:40:01;;;;;;;21.38;11.52;;;5.00;99.90;;;;;;5045155;28;20442;-62
2022/01/02 05:42:48;;;;;;;20.20;10.63;;;5.00;99.90;;;;;;5007447;28;20052;-63
2022/01/02 05:45:34;;;;;;;18.88;11.35;;;5.00;99.90;;;;;;5016381;28;20092;-62
2022/01/02 05:48:20;;;;;;;24.77;11.10;;;5.00;99.90;;;;;;5030857;28;20446;-62
2022/01/02 05:51:06;;;;;;;20.45;11.75;;;5.10;99.90;;;;;;5024315;28;20072;-63
2022/01/02 05:53:54;;;;;;;22.33;11.32;;;5.10;99.90;;;;;;5013119;28;20067;-62
2022/01/02 05:56:39;;;;;;;20.42;11.00;;;5.10;99.90;;;;;;5018594;28;20080;-62
2022/01/02 05:59:26;;;;;;;21.23;11.55;;;5.20;99.90;;;;;;5031396;28;20049;-62
2022/01/02 06:02:12;;;;;;;16.88;10.00;;;5.20;99.90;;;;;;5015871;28;20075;-63
2022/01/02 06:05:00;;;;;;;22.95;11.57;;;5.20;99.90;;;;;;5015962;28;20065;-63
2022/01/02 06:07:46;;;;;;;20.65;11.20;;;5.20;99.90;;;;;;5026813;28;20172;-63
2022/01/02 06:10:31;;;;;;;22.23;11.43;;;5.30;99.90;;;;;;5014388;28;20528;-63
2022/01/02 06:13:17;;;;;;;18.52;11.05;;;5.30;99.90;;;;;;5030163;28;20060;-63
2022/01/02 06:16:03;;;;;;;21.15;11.70;;;5.30;99.90;;;;;;5029877;28;20055;-63
2022/01/02 06:18:51;;;;;;;20.05;10.63;;;5.30;99.90;;;;;;5022087;28;20056;-63
2022/01/02 06:21:37;;;;;;;20.27;11.07;;;5.30;99.90;;;;;;5028444;28;20048;-63
2022/01/02 06:24:23;;;;;;;21.67;10.90;;;5.30;99.90;;;;;;5043693;28;20068;-63
2022/01/02 06:27:09;;;;;;;19.25;10.52;;;5.40;99.90;;;;;;4999609;28;20060;-63
2022/01/02 06:29:56;;;;;;;21.65;10.70;;;5.40;99.90;;;;;;5027378;28;20540;-63
2022/01/02 06:32:42;;;;;;;19.85;10.85;;;5.40;99.90;;;;;;5043041;28;20404;-63
2022/01/02 06:35:31;;;;;;;20.10;11.23;;;5.40;99.90;;;;;;5013895;28;20056;-63
2022/01/02 06:38:21;;;;;;;17.77;10.90;;;5.40;99.90;;;;;;5025404;28;20064;-63
2022/01/02 06:41:12;;;;;;;18.83;10.82;;;5.50;99.90;;;;;;5028958;28;20059;-63
2022/01/02 06:43:59;;;;;;;20.02;11.25;;;5.50;99.90;;;;;;5015397;28;20072;-63
2022/01/02 06:46:45;;;;;;;18.45;10.77;;;5.50;99.90;;;;;;5015485;28;20107;-63
2022/01/02 06:49:32;;;;;;;21.95;11.68;;;5.60;99.90;;;;;;5041191;28;20112;-63
2022/01/02 06:52:18;;;;;;;19.35;11.13;;;5.60;99.90;;;;;;5026476;28;20119;-63
2022/01/02 06:55:05;;;;;;;19.30;10.48;;;5.60;99.90;;;;;;5026900;28;20093;-63
2022/01/02 06:57:51;;;;;;;17.95;10.30;;;5.60;99.90;;;;;;5014865;28;20056;-63
2022/01/02 07:00:38;;;;;;;19.27;10.52;;;5.60;99.90;;;;;;5041623;28;20101;-63
2022/01/02 07:03:25;;;;;;;19.65;11.02;;;5.70;99.90;;;;;;5014835;28;20068;-63
2022/01/02 07:06:11;;;;;;;18.38;10.75;;;5.70;99.90;;;;;;5041280;28;20444;-63
2022/01/02 07:08:57;;;;;;;18.30;9.93;;;5.70;99.90;;;;;;5014010;28;20065;-64
2022/01/02 07:11:43;;;;;;;18.02;10.32;;;5.70;99.90;;;;;;5027980;28;20060;-62
2022/01/02 07:14:30;;;;;;;18.92;10.57;;;5.80;99.90;;;;;;5041939;28;20091;-64
2022/01/02 07:17:16;;;;;;;21.33;10.07;;;5.80;99.90;;;;;;5029485;28;20532;-64
2022/01/02 07:20:05;;;;;;;17.27;10.25;;;5.80;99.90;;;;;;5029338;28;20060;-62
2022/01/02 07:22:50;;;;;;;18.13;10.57;;;5.70;99.90;;;;;;5027821;28;20048;-63
2022/01/02 07:25:36;;;;;;;18.60;9.63;;;5.80;99.90;;;;;;5030040;28;20133;-64
2022/01/02 07:28:22;;;;;;;18.75;11.10;;;5.80;99.90;;;;;;5026920;28;20048;-63
2022/01/02 07:31:08;;;;;;;17.30;10.32;;;5.80;99.90;;;;;;5026945;28;20056;-63
2022/01/02 07:33:54;;;;;;;17.00;10.18;;;5.80;99.90;;;;;;5026359;28;20482;-62
2022/01/02 07:36:44;;;;;;;18.25;10.48;;;5.80;99.90;;;;;;5023729;28;20423;-63
2022/01/02 07:39:30;;;;;;;19.50;11.30;;;5.80;99.90;;;;;;5024728;28;20120;-63
2022/01/02 07:42:16;;;;;;;18.67;10.80;;;5.80;99.90;;;;;;5025269;28;20163;-63
2022/01/02 07:45:08;;;;;;;19.05;10.23;;;5.80;99.90;;;;;;5013064;28;20328;-63
2022/01/02 07:47:54;;;;;;;18.75;9.90;;;5.80;99.90;;;;;;5019600;28;20071;-64
2022/01/02 07:50:40;;;;;;;19.17;10.82;;;5.80;99.90;;;;;;5027272;28;20455;-64
2022/01/02 07:53:26;;;;;;;15.45;9.90;;;5.80;99.90;;;;;;5029232;28;20127;-64
2022/01/02 07:56:12;;;;;;;18.10;10.00;;;5.90;99.90;;;;;;5026923;28;20052;-64
2022/01/02 07:58:58;;;;;;;17.52;10.45;;;5.90;99.90;;;;;;5028984;28;20056;-64
2022/01/02 08:01:44;;;;;;;17.50;10.10;;;5.90;99.90;;;;;;5026349;28;20052;-64
2022/01/02 08:04:29;;;;;;;16.50;10.05;;;6.00;99.90;;;;;;5027845;28;20052;-64
2022/01/02 08:07:15;;;;;;;17.17;10.38;;;6.10;99.90;;;;;;5018822;28;20124;-64
2022/01/02 08:10:04;;;;;;;17.00;8.95;;;6.10;99.90;;;;;;5014829;28;20527;-64
2022/01/02 08:12:50;;;;;;;17.55;10.15;;;6.30;99.90;;;;;;5027878;28;20049;-64
2022/01/02 08:15:36;;;;;;;16.50;9.70;;;6.40;99.90;;;;;;5021931;28;20060;-64
2022/01/02 08:18:22;;;;;;;17.38;10.27;;;6.50;99.90;;;;;;5027034;28;20123;-64
2022/01/02 08:21:08;;;;;;;16.98;9.75;;;6.70;99.90;;;;;;5028453;28;20056;-64
2022/01/02 08:23:54;;;;;;;17.60;9.70;;;6.80;99.90;;;;;;5029108;28;20064;-63
2022/01/02 08:26:39;;;;;;;16.15;9.35;;;6.90;99.90;;;;;;5026608;28;20523;-63
2022/01/02 08:29:25;;;;;;;17.77;10.07;;;7.00;99.90;;;;;;5028664;28;20056;-63
2022/01/02 08:32:12;;;;;;;16.25;9.30;;;7.00;99.90;;;;;;5013892;28;20059;-62
2022/01/02 08:34:58;;;;;;;16.00;9.52;;;7.00;99.90;;;;;;5028540;28;20184;-64
2022/01/02 08:37:44;;;;;;;18.50;9.98;;;7.10;99.90;;;;;;5028735;28;20095;-62
2022/01/02 08:40:30;;;;;;;19.02;10.43;;;7.10;99.90;;;;;;5028408;28;20467;-63
2022/01/02 08:43:16;;;;;;;19.27;9.85;;;7.10;99.90;;;;;;5028428;28;20049;-62
2022/01/02 08:46:02;;;;;;;18.00;10.45;;;7.20;99.90;;;;;;5028489;28;20075;-63
2022/01/02 08:48:47;;;;;;;15.60;9.57;;;7.20;99.90;;;;;;5011823;28;20411;-62
2022/01/02 08:51:33;;;;;;;25.20;10.43;;;7.20;99.90;;;;;;5028421;28;20424;-63
2022/01/02 08:54:19;;;;;;;16.75;10.25;;;7.30;99.90;;;;;;5028798;28;20160;-64
2022/01/02 08:57:05;;;;;;;18.58;10.40;;;7.40;99.90;;;;;;5028088;28;20048;-63
2022/01/02 08:59:51;;;;;;;15.10;9.68;;;7.40;99.90;;;;;;5028812;28;20060;-62
2022/01/02 09:02:39;;;;;;;14.75;9.45;;;7.40;99.90;;;;;;5013189;28;20053;-64
2022/01/02 09:05:26;;;;;;;15.48;9.98;;;7.50;99.90;;;;;;5017392;28;20044;-62
2022/01/02 09:08:12;;;;;;;17.88;9.80;;;7.50;99.90;;;;;;5025249;28;20485;-63
2022/01/02 09:10:58;;;;;;;20.65;12.15;;;7.60;99.90;;;;;;5023268;28;20166;-63
2022/01/02 09:13:44;;;;;;;15.30;9.60;;;7.70;99.90;;;;;;5026588;28;20115;-64
2022/01/02 09:16:30;;;;;;;17.80;10.05;;;7.70;99.90;;;;;;5025706;28;20761;-64
2022/01/02 09:19:16;;;;;;;18.83;10.93;;;7.70;99.90;;;;;;5027654;28;20048;-63
2022/01/02 09:22:03;;;;;;;17.80;10.52;;;7.70;99.90;;;;;;5024969;28;20175;-64
2022/01/02 09:24:48;;;;;;;15.10;9.73;;;7.70;99.90;;;;;;5026535;28;20179;-63
2022/01/02 09:27:35;;;;;;;22.33;10.63;;;7.80;99.90;;;;;;5027815;28;20067;-63
2022/01/02 09:30:21;;;;;;;17.25;9.50;;;8.00;99.90;;;;;;5009946;28;20530;-63
2022/01/02 09:33:10;;;;;;;17.42;10.85;;;8.20;99.90;;;;;;5031392;28;20076;-64
2022/01/02 09:35:56;;;;;;;15.75;10.05;;;8.40;99.90;;;;;;5029775;28;20052;-64
2022/01/02 09:38:42;;;;;;;15.60;9.60;;;8.70;99.90;;;;;;5030995;28;20060;-64
2022/01/02 09:41:28;;;;;;;16.73;10.13;;;8.90;99.90;;;;;;5027134;28;20135;-64
2022/01/02 09:44:14;;;;;;;16.63;10.20;;;9.30;99.90;;;;;;5031267;28;20171;-63
2022/01/02 09:47:00;;;;;;;16.38;10.43;;;9.60;99.90;;;;;;5037803;28;20060;-63
2022/01/02 09:49:47;;;;;;;21.42;13.73;;;9.80;99.90;;;;;;5013360;28;20530;-63
2022/01/02 09:52:36;;;;;;;21.77;12.13;;;10.00;99.90;;;;;;5029909;28;20057;-64
2022/01/02 09:55:03;;;;;;;17.38;10.13;;;10.10;99.90;;;;;;5029051;28;20049;-63
2022/01/02 09:57:31;;;;;;;15.85;10.05;;;10.10;99.90;;;;;;5028472;28;20131;-63
2022/01/02 09:59:58;;;;;;;17.38;9.52;;;10.30;99.90;;;;;;5031183;28;20087;-63
2022/01/02 10:02:25;;;;;;;17.23;10.00;;;10.50;99.90;;;;;;5030880;28;20061;-63
2022/01/02 10:05:02;;;;;;;17.35;10.15;;;10.50;99.90;;;;;;5031052;28;20124;-64
2022/01/02 10:07:34;;;;;;;15.52;9.60;;;10.50;99.90;;;;;;5029439;28;20120;-63
2022/01/02 10:10:10;;;;;;;14.48;9.68;;;10.50;99.90;;;;;;5029611;28;20140;-68
2022/01/02 10:12:38;;;;;;;15.00;8.93;;;10.50;99.90;;;;;;5028502;28;20041;-67
2022/01/02 10:15:08;;;;;;;14.35;8.63;;;10.50;99.90;;;;;;5011574;28;20041;-67
2022/01/02 10:17:53;;;;;;;16.55;10.45;;;10.50;99.90;;;;;;5030739;28;20488;-68
2022/01/02 10:20:22;;;;;;;17.05;9.45;;;10.70;99.90;;;;;;5029918;28;20036;-67
2022/01/02 10:23:13;;;;;;;15.38;9.75;;;10.70;99.90;;;;;;5028175;28;20140;-68
2022/01/02 10:25:58;;;;;;;16.75;9.85;;;10.80;99.90;;;;;;5036232;28;20055;-68
2022/01/02 10:28:32;;;;;;;14.82;9.35;;;11.00;99.90;;;;;;5031315;28;20049;-67
2022/01/02 10:31:04;;;;;;;14.75;9.20;;;11.10;99.90;;;;;;5022915;28;20064;-67
2022/01/02 10:33:45;;;;;;;;;;;11.20;99.90;;;;;;5031284;28;20050;-68
2022/01/02 10:36:12;;;;;;;14.85;8.80;;;11.30;99.90;;;;;;5024210;28;19936;-68
2022/01/02 10:38:57;;;;;;;17.80;10.07;;;11.40;99.90;;;;;;5030585;28;20384;-67
2022/01/02 10:41:37;;;;;;;14.40;9.35;;;11.50;99.90;;;;;;5028815;28;20048;-67
2022/01/02 10:44:23;;;;;;;17.10;10.38;;;11.70;99.90;;;;;;5028910;28;20133;-68
2022/01/02 10:47:14;;;;;;;16.55;9.93;;;12.00;99.90;;;;;;5034328;28;20140;-68
2022/01/02 10:50:11;;;;;;;15.63;9.80;;;12.00;99.90;;;;;;5020204;28;20153;-68
2022/01/02 10:52:41;;;;;;;14.55;9.27;;;11.90;99.90;;;;;;5030633;28;20083;-68
2022/01/02 10:55:26;;;;;;;17.48;10.70;;;11.80;99.90;;;;;;5029090;28;20052;-68
2022/01/02 10:57:55;;;;;;;16.67;9.43;;;11.70;99.90;;;;;;5025663;28;20064;-68
2022/01/02 11:00:25;;;;;;;15.98;9.57;;;11.70;99.90;;;;;;5029810;28;20045;-65
2022/01/02 11:02:53;;;;;;;14.65;9.63;;;11.40;99.90;;;;;;5027574;28;20041;-65
2022/01/02 11:05:23;;;;;;;16.63;10.90;;;11.10;99.90;;;;;;5002402;28;20045;-65
2022/01/02 11:07:54;;;;;;;14.48;9.45;;;10.90;99.90;;;;;;5030223;28;20385;-65
2022/01/02 11:10:23;;;;;;;15.65;10.40;;;10.80;99.90;;;;;;5025603;28;20049;-65
2022/01/02 11:12:53;;;;;;;14.98;10.15;;;10.70;99.90;;;;;;5023590;28;20053;-66
2022/01/02 11:15:22;;;;;;;16.02;9.75;;;10.50;99.90;;;;;;4999861;28;20056;-65
2022/01/02 11:17:50;;;;;;;20.63;11.27;;;10.50;99.90;;;;;;5029681;28;20054;-66
2022/01/02 11:20:20;;;;;;;17.50;10.55;;;10.40;99.90;;;;;;5028562;28;20056;-66
2022/01/02 11:22:53;;;;;;;17.83;10.15;;;10.40;99.90;;;;;;5030035;28;20053;-66
2022/01/02 11:26:00;;;;;;;15.18;9.77;;;10.40;99.90;;;;;;5029331;28;20045;-66
2022/01/02 11:28:39;;;;;;;16.83;10.13;;;10.20;99.90;;;;;;5030329;28;20472;-66
2022/01/02 11:31:33;;;;;;;16.60;10.07;;;10.20;99.90;;;;;;5031370;28;20040;-66
2022/01/02 11:34:01;;;;;;;18.23;11.30;;;10.40;99.90;;;;;;5027231;28;20120;-67
2022/01/02 11:36:30;;;;;;;18.02;10.52;;;10.50;99.90;;;;;;5009910;28;20403;-66
2022/01/02 11:39:05;;;;;;;24.27;14.20;;;10.60;99.90;;;;;;5024499;28;20085;-66
2022/01/02 11:41:36;;;;;;;18.75;10.82;;;10.70;99.90;;;;;;5033620;28;20041;-66
2022/01/02 11:44:05;;;;;;;18.55;11.15;;;10.80;99.90;;;;;;5028096;28;20399;-66
2022/01/02 11:46:39;;;;;;;15.15;10.07;;;10.80;99.90;;;;;;5027207;28;20116;-66
2022/01/02 11:49:13;;;;;;;19.42;11.02;;;10.60;99.90;;;;;;5028926;28;20049;-66
2022/01/02 11:52:10;;;;;;;17.70;10.55;;;10.40;99.90;;;;;;5027990;28;20041;-66
2022/01/02 11:54:41;;;;;;;18.25;10.98;;;10.30;99.90;;;;;;5027927;28;20060;-66
2022/01/02 11:57:12;;;;;;;21.23;11.52;;;10.20;99.90;;;;;;5009525;28;20125;-66
2022/01/02 11:59:39;;;;;;;20.38;11.55;;;10.10;99.90;;;;;;5020261;28;20053;-66
2022/01/02 12:02:18;;;;;;;16.75;10.07;;;10.10;99.90;;;;;;5022456;28;20053;-66
2022/01/02 12:10:16;;;;;;;20.15;10.73;;;10.00;99.90;;;;;;5027501;28;20041;-66
2022/01/02 12:12:56;;;;;;;17.25;10.85;;;9.90;99.90;;;;;;5027974;28;20065;-66
2022/01/02 12:15:35;;;;;;;17.08;10.30;;;9.90;99.90;;;;;;5029216;28;20049;-66
2022/01/02 12:18:31;;;;;;;15.43;9.75;;;9.80;99.90;;;;;;5019166;28;20058;-66
2022/01/02 12:21:01;;;;;;;18.73;10.35;;;9.80;99.90;;;;;;5023677;28;20045;-65
2022/01/02 12:23:35;;;;;;;24.20;15.90;;;9.80;99.90;;;;;;5026935;28;20053;-65
2022/01/02 12:26:11;;;;;;;17.63;10.48;;;9.80;99.90;;;;;;5018785;28;20518;-65
2022/01/02 12:29:13;;;;;;;17.15;10.57;;;9.80;99.90;;;;;;5026690;28;20042;-65
2022/01/02 12:31:41;;;;;;;17.52;10.50;;;9.80;99.90;;;;;;5028101;28;20045;-66
2022/01/02 12:34:19;;;;;;;19.77;11.60;;;9.80;99.90;;;;;;5028139;28;20136;-67
2022/01/02 12:36:48;;;;;;;22.90;12.80;;;9.70;99.90;;;;;;5026884;28;20042;-66
2022/01/02 12:39:40;;;;;;;16.77;10.32;;;9.70;99.90;;;;;;5027619;28;20049;-66
2022/01/02 12:42:14;;;;;;;17.73;10.05;;;9.80;99.90;;;;;;5027635;28;20523;-65
2022/01/02 12:44:43;;;;;;;15.98;9.80;;;9.80;99.90;;;;;;5032108;28;20123;-66
2022/01/02 12:47:19;;;;;;;18.60;9.80;;;9.70;99.90;;;;;;5027951;28;20440;-66
2022/01/02 12:49:47;;;;;;;17.40;10.38;;;9.70;99.90;;;;;;5027540;28;20050;-65
2022/01/02 12:52:16;;;;;;;18.20;11.20;;;9.80;99.90;;;;;;5026960;28;20056;-65
2022/01/02 12:54:46;;;;;;;17.20;11.35;;;9.80;99.90;;;;;;5026915;28;20200;-65
2022/01/02 12:57:16;;;;;;;17.75;10.32;;;9.80;99.90;;;;;;5017521;28;20034;-66
2022/01/02 12:59:46;;;;;;;18.00;10.77;;;9.80;99.90;;;;;;5028158;28;20048;-65
2022/01/02 13:02:21;;;;;;;18.13;10.65;;;9.70;99.90;;;;;;5022229;28;20091;-65
2022/01/02 13:04:55;;;;;;;20.08;11.13;;;9.70;99.90;;;;;;5025803;28;20128;-65
2022/01/02 13:07:23;;;;;;;17.70;11.25;;;9.80;99.90;;;;;;5029014;28;20042;-65
2022/01/02 13:09:54;;;;;;;19.42;11.77;;;9.70;99.90;;;;;;5032111;28;20041;-65
2022/01/02 13:12:35;;;;;;;15.85;10.07;;;9.70;99.90;;;;;;5032050;28;20056;-65
2022/01/02 13:15:11;;;;;;;17.60;10.65;;;9.70;99.90;;;;;;5032209;28;20412;-65
2022/01/02 13:17:45;;;;;;;16.55;10.43;;;9.70;99.90;;;;;;5037281;28;20150;-65
2022/01/02 13:20:17;;;;;;;20.00;11.63;;;9.70;99.90;;;;;;5030742;28;20043;-65
2022/01/02 13:22:52;;;;;;;18.92;10.82;;;9.70;99.90;;;;;;5031829;28;20404;-66
2022/01/02 13:25:34;;;;;;;19.15;11.60;;;9.70;99.90;;;;;;5030188;28;20053;-65
2022/01/02 13:28:05;;;;;;;17.08;10.45;;;9.80;99.90;;;;;;5031953;28;20492;-66
2022/01/02 13:30:39;;;;;;;19.00;10.30;;;9.80;99.90;;;;;;5033189;28;20049;-66
2022/01/02 13:33:16;;;;;;;19.13;11.32;;;9.80;99.90;;;;;;5014741;28;20046;-66
2022/01/02 13:35:44;;;;;;;15.20;9.30;;;9.80;99.90;;;;;;5031854;28;20067;-66
2022/01/02 13:38:11;;;;;;;16.13;10.02;;;9.90;99.90;;;;;;5021809;28;20045;-66
2022/01/02 13:40:40;;;;;;;14.32;9.27;;;9.90;99.90;;;;;;5013722;28;20037;-66
2022/01/02 13:43:18;;;;;;;15.60;9.80;;;9.80;99.90;;;;;;5031811;28;20042;-66
2022/01/02 13:45:47;;;;;;;18.40;11.02;;;9.90;99.90;;;;;;5031524;28;20120;-66
2022/01/02 13:48:21;;;;;;;15.00;9.85;;;10.00;99.90;;;;;;5031303;28;20048;-65
2022/01/02 13:50:55;;;;;;;14.68;9.07;;;10.10;99.90;;;;;;5021462;28;20041;-65
2022/01/02 13:53:28;;;;;;;18.02;10.73;;;10.20;99.90;;;;;;5013177;28;20074;-66
2022/01/02 13:56:18;;;;;;;14.80;9.65;;;10.10;99.90;;;;;;5013449;28;20069;-65
2022/01/02 13:58:47;;;;;;;16.10;9.93;;;10.30;99.90;;;;;;5031180;28;20041;-65
2022/01/02 14:01:19;;;;;;;15.15;9.35;;;10.30;99.90;;;;;;5031009;28;20535;-65
2022/01/02 14:03:47;;;;;;;15.82;9.50;;;10.60;99.90;;;;;;5031325;28;20042;-65
2022/01/02 14:06:34;;;;;;;14.90;9.93;;;10.80;99.90;;;;;;5030870;28;20052;-66
2022/01/02 14:09:10;;;;;;;14.32;9.00;;;10.80;99.90;;;;;;5031361;28;20046;-66